Time;durP1;ratioP1;P1;durP2;ratioP2;P2;SDS_P1;SDS_P2;PMS_P1;PMS_P2;Temp;Humidity;BMP_temperature;BMP_pressure;BME280_temperature;BME280_humidity;BME280_pressure;Samples;Min_cycle;Max_cycle;Signal;HPM_P1;HPM_P2
2024/01/30 00:01:48;;;;;;;14.48;10.52;;;;;;;-144.26;100.00;64884.69;5033546;28;20036;-78
2024/01/30 00:04:13;;;;;;;13.65;10.18;;;;;;;-144.26;100.00;64884.69;5014898;28;20034;-78
2024/01/30 00:06:38;;;;;;;15.25;10.25;;;;;;;-144.26;100.00;64884.69;5033471;28;20031;-78
2024/01/30 00:09:05;;;;;;;14.27;11.15;;;;;;;-144.26;100.00;64884.69;5033490;28;20022;-78
2024/01/30 00:11:30;;;;;;;14.68;10.77;;;;;;;-144.26;100.00;64884.69;5033171;28;20033;-78
2024/01/30 00:13:56;;;;;;;13.18;10.48;;;;;;;-144.26;100.00;64884.69;5033115;28;20109;-78
2024/01/30 00:16:25;;;;;;;13.52;10.32;;;;;;;-144.26;100.00;64884.69;5015183;28;20045;-78
2024/01/30 00:18:51;;;;;;;14.23;10.60;;;;;;;-144.26;100.00;64884.69;5015161;28;20041;-77
2024/01/30 00:21:17;;;;;;;14.70;10.07;;;;;;;-144.26;100.00;64884.69;5033222;28;20030;-79
2024/01/30 00:23:42;;;;;;;14.40;11.10;;;;;;;-144.26;100.00;64884.69;5033360;28;20021;-78
2024/01/30 00:26:07;;;;;;;15.82;10.45;;;;;;;-144.26;100.00;64884.69;5033133;28;20029;-78
2024/01/30 00:28:32;;;;;;;14.38;10.95;;;;;;;-144.26;100.00;64884.69;5032800;28;20034;-79
2024/01/30 00:30:58;;;;;;;16.27;11.25;;;;;;;-144.26;100.00;64884.69;5033162;28;20029;-78
2024/01/30 00:33:23;;;;;;;16.45;10.68;;;;;;;-144.26;100.00;64884.69;5033043;28;20022;-78
2024/01/30 00:35:48;;;;;;;15.98;11.30;;;;;;;-144.26;100.00;64884.69;5032651;28;20037;-78
2024/01/30 00:38:14;;;;;;;16.17;10.73;;;;;;;-144.26;100.00;64884.69;5033076;28;20038;-79
2024/01/30 00:40:39;;;;;;;13.57;10.45;;;;;;;-144.26;100.00;64884.69;5032628;28;20052;-78
2024/01/30 00:43:05;;;;;;;16.05;10.85;;;;;;;-144.26;100.00;64884.69;5032519;28;20033;-78
2024/01/30 00:45:31;;;;;;;13.95;10.50;;;;;;;-144.26;100.00;64884.69;5032816;28;20028;-78
2024/01/30 00:47:56;;;;;;;14.50;10.32;;;;;;;-144.26;100.00;64884.69;5032436;28;20515;-78
2024/01/30 00:50:21;;;;;;;14.82;10.45;;;;;;;-144.26;100.00;64884.69;5032569;28;20025;-78
2024/01/30 00:52:47;;;;;;;15.60;11.00;;;;;;;-144.26;100.00;64884.69;5032293;28;20096;-79
2024/01/30 00:55:12;;;;;;;15.20;11.20;;;;;;;-144.26;100.00;64884.69;5032623;28;20029;-78
2024/01/30 00:57:38;;;;;;;15.15;10.77;;;;;;;-144.26;100.00;64884.69;5032650;28;20504;-79
2024/01/30 01:00:06;;;;;;;13.43;9.93;;;;;;;-144.26;100.00;64884.69;5032514;28;20022;-78
2024/01/30 01:02:31;;;;;;;14.57;11.45;;;;;;;-144.26;100.00;64884.69;5032422;28;20029;-79
2024/01/30 01:04:56;;;;;;;17.27;11.23;;;;;;;-144.26;100.00;64884.69;5032202;28;20079;-77
2024/01/30 01:07:22;;;;;;;16.73;11.70;;;;;;;-144.26;100.00;64884.69;5032853;28;20026;-78
2024/01/30 01:09:47;;;;;;;13.32;11.02;;;;;;;-144.26;100.00;64884.69;5032553;28;20025;-78
2024/01/30 01:12:13;;;;;;;14.48;11.48;;;;;;;-144.26;100.00;64884.69;5032629;28;20473;-79
2024/01/30 01:14:38;;;;;;;14.20;10.35;;;;;;;-144.26;100.00;64884.69;5032176;28;20036;-79
2024/01/30 01:17:04;;;;;;;13.80;10.77;;;;;;;-144.26;100.00;64884.69;5032184;28;20021;-79
2024/01/30 01:19:29;;;;;;;14.68;11.00;;;;;;;-144.26;100.00;64884.69;5032492;28;20021;-79
2024/01/30 01:21:54;;;;;;;14.60;11.13;;;;;;;-144.26;100.00;64884.69;5032339;28;20018;-79
2024/01/30 01:24:20;;;;;;;15.63;11.43;;;;;;;-144.26;100.00;64884.69;5032541;28;20053;-79
2024/01/30 01:26:45;;;;;;;13.80;10.82;;;;;;;-144.26;100.00;64884.69;5032516;28;20053;-79
2024/01/30 01:29:11;;;;;;;13.32;10.95;;;;;;;-144.26;100.00;64884.69;5032300;28;20029;-79
2024/01/30 01:31:43;;;;;;;15.00;10.95;;;;;;;-144.26;100.00;64884.69;5032196;28;20466;-79
2024/01/30 01:34:12;;;;;;;14.20;11.52;;;;;;;-144.26;100.00;64884.69;5032240;28;20115;-79
2024/01/30 01:36:38;;;;;;;15.40;11.25;;;;;;;-144.26;100.00;64884.69;5032052;28;20496;-78
2024/01/30 01:39:03;;;;;;;16.13;10.73;;;;;;;-144.26;100.00;64884.69;5031952;28;20046;-79
2024/01/30 01:41:32;;;;;;;14.65;10.80;;;;;;;-144.26;100.00;64884.69;5032303;28;20036;-78
2024/01/30 01:43:59;;;;;;;14.43;11.15;;;;;;;-144.26;100.00;64884.69;5031839;28;20469;-78
2024/01/30 01:46:27;;;;;;;14.38;10.95;;;;;;;-144.26;100.00;64884.69;5032259;28;20357;-78
2024/01/30 01:48:53;;;;;;;14.13;10.52;;;;;;;-144.26;100.00;64884.69;5032204;28;20029;-78
2024/01/30 01:51:19;;;;;;;16.10;11.57;;;;;;;-144.26;100.00;64884.69;5031899;28;20033;-78
2024/01/30 01:53:45;;;;;;;18.15;10.95;;;;;;;-144.26;100.00;64884.69;5032115;28;20384;-79
2024/01/30 01:56:10;;;;;;;15.68;10.70;;;;;;;-144.26;100.00;64884.69;5031931;28;20026;-79
2024/01/30 01:58:37;;;;;;;14.88;11.02;;;;;;;-144.26;100.00;64884.69;5031847;28;20026;-78
2024/01/30 02:01:04;;;;;;;15.45;10.63;;;;;;;-144.26;100.00;64884.69;5032085;28;20049;-78
2024/01/30 02:03:30;;;;;;;13.57;10.52;;;;;;;-144.26;100.00;64884.69;5032726;28;20108;-78
2024/01/30 02:05:56;;;;;;;13.80;10.73;;;;;;;-144.26;100.00;64884.69;5017576;28;20034;-79
2024/01/30 02:08:22;;;;;;;13.35;10.45;;;;;;;-144.26;100.00;64884.69;5035874;28;20033;-79
2024/01/30 02:10:48;;;;;;;16.40;10.43;;;;;;;-144.26;100.00;64884.69;5035710;28;20071;-78
2024/01/30 02:13:13;;;;;;;14.15;10.77;;;;;;;-144.26;100.00;64884.69;5035708;28;20428;-79
2024/01/30 02:15:38;;;;;;;14.25;10.48;;;;;;;-144.26;100.00;64884.69;5035445;28;20430;-79
2024/01/30 02:18:04;;;;;;;14.10;10.52;;;;;;;-144.26;100.00;64884.69;5035383;28;20026;-78
2024/01/30 02:20:31;;;;;;;12.95;10.23;;;;;;;-144.26;100.00;64884.69;5035306;28;20033;-78
2024/01/30 02:23:01;;;;;;;14.10;10.35;;;;;;;-144.26;100.00;64884.69;5035315;28;20029;-79
2024/01/30 02:25:44;;;;;;;13.60;10.13;;;;;;;-144.26;100.00;64884.69;5035597;28;20033;-79
2024/01/30 02:28:12;;;;;;;14.15;10.13;;;;;;;-144.26;100.00;64884.69;5017419;28;20029;-79
2024/01/30 02:30:38;;;;;;;14.77;10.48;;;;;;;-144.26;100.00;64884.69;5035280;28;20029;-79
2024/01/30 02:33:04;;;;;;;15.70;10.50;;;;;;;-144.26;100.00;64884.69;5035057;28;20108;-78
2024/01/30 02:35:29;;;;;;;14.90;10.68;;;;;;;-144.26;100.00;64884.69;5035009;28;20171;-79
2024/01/30 02:37:54;;;;;;;13.30;9.88;;;;;;;-144.26;100.00;64884.69;5035287;28;20074;-78
2024/01/30 02:40:20;;;;;;;15.68;10.57;;;;;;;-144.26;100.00;64884.69;5034818;28;20390;-79
2024/01/30 02:42:45;;;;;;;14.00;10.52;;;;;;;-144.26;100.00;64884.69;5035148;28;20030;-78
2024/01/30 02:45:11;;;;;;;14.98;9.70;;;;;;;-144.26;100.00;64884.69;5016976;28;20515;-79
2024/01/30 02:47:36;;;;;;;13.80;10.20;;;;;;;-144.26;100.00;64884.69;5034965;28;20061;-78
2024/01/30 02:50:02;;;;;;;14.10;10.35;;;;;;;-144.26;100.00;64884.69;5034823;28;20092;-78
2024/01/30 02:52:27;;;;;;;12.20;9.70;;;;;;;-144.26;100.00;64884.69;5035043;28;20496;-79
2024/01/30 02:54:53;;;;;;;12.75;10.07;;;;;;;-144.26;100.00;64884.69;5034651;28;20032;-79
2024/01/30 02:57:18;;;;;;;12.77;10.10;;;;;;;-144.26;100.00;64884.69;5034843;28;20119;-79
2024/01/30 02:59:43;;;;;;;12.90;9.73;;;;;;;-144.26;100.00;64884.69;5034671;28;20460;-78
2024/01/30 03:02:09;;;;;;;14.15;10.38;;;;;;;-144.26;100.00;64884.69;5034844;28;20137;-79
2024/01/30 03:04:34;;;;;;;14.20;10.65;;;;;;;-144.26;100.00;64884.69;5034759;28;20065;-79
2024/01/30 03:06:59;;;;;;;14.35;10.27;;;;;;;-144.26;100.00;64884.69;5034677;28;20068;-80
2024/01/30 03:09:24;;;;;;;14.13;10.55;;;;;;;-144.26;100.00;64884.69;5016358;28;20128;-80
2024/01/30 03:11:50;;;;;;;14.60;10.88;;;;;;;-144.26;100.00;64884.69;5034469;28;20075;-79
2024/01/30 03:14:16;;;;;;;12.55;10.02;;;;;;;-144.26;100.00;64884.69;5034261;28;20028;-79
2024/01/30 03:16:42;;;;;;;14.07;10.35;;;;;;;-144.26;100.00;64884.69;5033237;28;20037;-79
2024/01/30 03:19:09;;;;;;;13.45;10.50;;;;;;;-144.26;100.00;64884.69;5034542;28;20017;-81
2024/01/30 03:21:34;;;;;;;14.95;10.43;;;;;;;-144.26;100.00;64884.69;5034198;28;20049;-81
2024/01/30 03:24:00;;;;;;;15.02;10.27;;;;;;;-144.26;100.00;64884.69;5034362;28;20053;-81
2024/01/30 03:26:25;;;;;;;17.00;10.50;;;;;;;-144.26;100.00;64884.69;5034522;28;20108;-81
2024/01/30 03:28:51;;;;;;;14.38;10.23;;;;;;;-144.26;100.00;64884.69;5034093;28;20487;-81
2024/01/30 03:31:16;;;;;;;13.75;10.02;;;;;;;-144.26;100.00;64884.69;5033979;28;20026;-81
2024/01/30 03:33:42;;;;;;;13.82;9.90;;;;;;;-144.26;100.00;64884.69;5034124;28;20025;-79
2024/01/30 03:36:09;;;;;;;15.18;10.80;;;;;;;-144.26;100.00;64884.69;5016196;28;20033;-79
2024/01/30 03:38:35;;;;;;;13.25;10.00;;;;;;;-144.26;100.00;64884.69;5033865;28;20096;-79
2024/01/30 03:41:00;;;;;;;12.20;10.15;;;;;;;-144.26;100.00;64884.69;5033603;28;20132;-80
2024/01/30 03:43:26;;;;;;;14.27;10.00;;;;;;;-144.26;100.00;64884.69;5034032;28;20017;-80
2024/01/30 03:45:51;;;;;;;11.93;9.73;;;;;;;-144.26;100.00;64884.69;4999561;28;20026;-81
2024/01/30 03:48:16;;;;;;;12.90;10.15;;;;;;;-144.26;100.00;64884.69;5033783;28;20028;-80
2024/01/30 03:50:42;;;;;;;13.38;10.23;;;;;;;-144.26;100.00;64884.69;5033641;28;20044;-81
2024/01/30 03:53:07;;;;;;;14.07;10.52;;;;;;;-144.26;100.00;64884.69;5033515;28;20473;-80
2024/01/30 03:55:33;;;;;;;13.18;10.32;;;;;;;-144.26;100.00;64884.69;5033693;28;20487;-81
2024/01/30 03:57:58;;;;;;;13.73;9.85;;;;;;;-144.26;100.00;64884.69;5033573;28;20025;-80
2024/01/30 04:00:23;;;;;;;13.05;9.60;;;;;;;-144.26;100.00;64884.69;5033346;28;20033;-81
2024/01/30 04:02:51;;;;;;;13.88;9.88;;;;;;;-144.26;100.00;64884.69;5033219;28;20041;-80
2024/01/30 04:05:16;;;;;;;13.88;9.95;;;;;;;-144.26;100.00;64884.69;5033384;28;20048;-80
2024/01/30 04:07:41;;;;;;;14.68;10.27;;;;;;;-144.26;100.00;64884.69;5033171;28;20052;-79
2024/01/30 04:10:07;;;;;;;14.05;10.45;;;;;;;-144.26;100.00;64884.69;5033372;28;20025;-80
2024/01/30 04:12:33;;;;;;;13.27;9.75;;;;;;;-144.26;100.00;64884.69;5033115;28;20028;-80
2024/01/30 04:14:58;;;;;;;13.30;10.00;;;;;;;-144.26;100.00;64884.69;5033231;28;20047;-80
2024/01/30 04:17:24;;;;;;;14.13;10.07;;;;;;;-144.26;100.00;64884.69;5032876;28;20160;-80
2024/01/30 04:19:49;;;;;;;12.07;9.52;;;;;;;-144.26;100.00;64884.69;5033033;28;20021;-80
2024/01/30 04:22:14;;;;;;;14.70;9.70;;;;;;;-144.26;100.00;64884.69;5033288;28;20041;-79
2024/01/30 04:24:39;;;;;;;13.00;9.05;;;;;;;-144.26;100.00;64884.69;5033114;28;20091;-80
2024/01/30 04:27:05;;;;;;;13.07;10.00;;;;;;;-144.26;100.00;64884.69;5032675;28;20024;-81
2024/01/30 04:29:32;;;;;;;12.32;8.65;;;;;;;-144.26;100.00;64884.69;5033096;28;20423;-79
2024/01/30 04:31:57;;;;;;;12.25;9.20;;;;;;;-144.26;100.00;64884.69;5033101;28;20053;-79
2024/01/30 04:34:22;;;;;;;11.82;8.93;;;;;;;-144.26;100.00;64884.69;5032698;28;20045;-80
2024/01/30 04:36:48;;;;;;;12.80;9.30;;;;;;;-144.26;100.00;64884.69;5032937;28;20025;-79
2024/01/30 04:39:13;;;;;;;13.30;9.05;;;;;;;-144.26;100.00;64884.69;5014683;28;20096;-80
2024/01/30 04:41:38;;;;;;;12.50;9.20;;;;;;;-144.26;100.00;64884.69;5032768;28;20045;-79
2024/01/30 04:44:04;;;;;;;12.00;9.07;;;;;;;-144.26;100.00;64884.69;5032929;28;20028;-80
2024/01/30 04:46:29;;;;;;;12.25;9.15;;;;;;;-144.26;100.00;64884.69;5032702;28;20061;-80
2024/01/30 04:48:54;;;;;;;12.50;8.73;;;;;;;-144.26;100.00;64884.69;5032730;28;20100;-79
2024/01/30 04:51:19;;;;;;;12.20;8.40;;;;;;;-144.26;100.00;64884.69;5032854;28;20477;-80
2024/01/30 04:53:45;;;;;;;11.85;8.85;;;;;;;-144.26;100.00;64884.69;5032637;28;20021;-81
2024/01/30 04:56:10;;;;;;;11.25;8.90;;;;;;;-144.26;100.00;64884.69;5032317;28;20091;-80
2024/01/30 04:58:36;;;;;;;10.68;8.32;;;;;;;-144.26;100.00;64884.69;5032421;28;20369;-80
2024/01/30 05:01:02;;;;;;;11.77;8.18;;;;;;;-144.26;100.00;64884.69;5032224;28;20033;-79
2024/01/30 05:03:27;;;;;;;12.50;8.85;;;;;;;-144.26;100.00;64884.69;5032762;28;20084;-80
2024/01/30 05:05:54;;;;;;;11.38;8.35;;;;;;;-144.26;100.00;64884.69;5032251;28;20427;-79
2024/01/30 05:08:19;;;;;;;12.98;8.73;;;;;;;-144.26;100.00;64884.69;5032391;28;20075;-80
2024/01/30 05:10:45;;;;;;;11.95;8.93;;;;;;;-144.26;100.00;64884.69;5032264;28;20037;-79
2024/01/30 05:13:13;;;;;;;13.18;9.07;;;;;;;-144.26;100.00;64884.69;5032457;28;20017;-79
2024/01/30 05:15:39;;;;;;;15.00;9.30;;;;;;;-144.26;100.00;64884.69;5032254;28;20392;-79
2024/01/30 05:18:04;;;;;;;11.50;8.27;;;;;;;-144.26;100.00;64884.69;5032566;28;20036;-78
2024/01/30 05:20:30;;;;;;;12.82;8.25;;;;;;;-144.26;100.00;64884.69;5032324;28;20072;-78
2024/01/30 05:22:55;;;;;;;12.40;8.52;;;;;;;-144.26;100.00;64884.69;5032374;28;20117;-79
2024/01/30 05:25:20;;;;;;;13.73;8.57;;;;;;;-144.26;100.00;64884.69;5014465;28;20037;-79
2024/01/30 05:27:46;;;;;;;11.90;8.05;;;;;;;-144.26;100.00;64884.69;5032406;28;20022;-76
2024/01/30 05:30:12;;;;;;;11.45;8.15;;;;;;;-144.26;100.00;64884.69;5031990;28;20022;-77
2024/01/30 05:32:37;;;;;;;12.60;8.13;;;;;;;-144.26;100.00;64884.69;5032049;28;20025;-79
2024/01/30 05:35:03;;;;;;;14.70;8.90;;;;;;;-144.26;100.00;64884.69;5031995;28;20037;-79
2024/01/30 05:37:28;;;;;;;12.32;8.38;;;;;;;-144.26;100.00;64884.69;5033211;28;20029;-79
2024/01/30 05:39:53;;;;;;;12.52;8.75;;;;;;;-144.26;100.00;64884.69;5036046;28;20053;-79
2024/01/30 05:42:19;;;;;;;13.35;7.95;;;;;;;-144.26;100.00;64884.69;5035953;28;20033;-78
2024/01/30 05:44:44;;;;;;;13.27;8.60;;;;;;;-144.26;100.00;64884.69;5035917;28;20469;-79
2024/01/30 05:47:09;;;;;;;11.57;7.88;;;;;;;-144.26;100.00;64884.69;5035869;28;20155;-79
2024/01/30 05:49:35;;;;;;;11.68;8.27;;;;;;;-144.26;100.00;64884.69;5036012;28;20040;-80
2024/01/30 05:52:03;;;;;;;11.27;7.97;;;;;;;-144.26;100.00;64884.69;5036034;28;20036;-78
2024/01/30 05:54:29;;;;;;;10.63;8.13;;;;;;;-144.26;100.00;64884.69;5036029;28;20029;-79
2024/01/30 05:56:54;;;;;;;13.35;8.25;;;;;;;-144.26;100.00;64884.69;5035731;28;20026;-79
2024/01/30 05:59:19;;;;;;;11.23;7.63;;;;;;;-144.26;100.00;64884.69;5035907;28;20032;-79
2024/01/30 06:01:46;;;;;;;12.70;7.82;;;;;;;-144.26;100.00;64884.69;5035933;28;20083;-79
2024/01/30 06:04:12;;;;;;;12.43;7.68;;;;;;;-144.26;100.00;64884.69;5035813;28;20026;-78
2024/01/30 06:06:37;;;;;;;11.25;7.78;;;;;;;-144.26;100.00;64884.69;5017949;28;20128;-80
2024/01/30 06:09:02;;;;;;;12.68;7.88;;;;;;;-144.26;100.00;64884.69;5035566;28;20061;-79
2024/01/30 06:11:28;;;;;;;12.90;8.02;;;;;;;-144.26;100.00;64884.69;5035704;28;20036;-79
2024/01/30 06:13:53;;;;;;;10.40;7.63;;;;;;;-144.26;100.00;64884.69;5033695;28;20033;-78
2024/01/30 06:16:20;;;;;;;12.07;8.05;;;;;;;-144.26;100.00;64884.69;5035554;28;20029;-79
2024/01/30 06:18:46;;;;;;;12.13;7.95;;;;;;;-144.26;100.00;64884.69;5035023;28;20025;-79
2024/01/30 06:21:11;;;;;;;12.13;8.63;;;;;;;-144.26;100.00;64884.69;5035548;28;20021;-79
2024/01/30 06:23:36;;;;;;;12.15;8.32;;;;;;;-144.26;100.00;64884.69;5035453;28;20075;-79
2024/01/30 06:26:02;;;;;;;12.27;7.80;;;;;;;-144.26;100.00;64884.69;5035231;28;20025;-79
2024/01/30 06:28:27;;;;;;;10.90;8.23;;;;;;;-144.26;100.00;64884.69;5035377;28;20491;-80
2024/01/30 06:30:52;;;;;;;11.15;8.15;;;;;;;-144.26;100.00;64884.69;5035089;28;20032;-79
2024/01/30 06:33:18;;;;;;;12.40;7.97;;;;;;;-144.26;100.00;64884.69;5035072;28;20033;-79
2024/01/30 06:35:45;;;;;;;11.23;8.18;;;;;;;-144.26;100.00;64884.69;5035297;28;20026;-77
2024/01/30 06:38:11;;;;;;;11.27;8.13;;;;;;;-144.26;100.00;64884.69;5017300;28;20471;-81
2024/01/30 06:40:36;;;;;;;10.45;8.00;;;;;;;-144.26;100.00;64884.69;5034719;28;20041;-79
2024/01/30 06:43:01;;;;;;;11.43;8.10;;;;;;;-144.26;100.00;64884.69;5034996;28;20108;-78
2024/01/30 06:45:27;;;;;;;14.20;8.68;;;;;;;-144.26;100.00;64884.69;5034976;28;20029;-78
2024/01/30 06:47:52;;;;;;;12.80;8.68;;;;;;;-144.26;100.00;64884.69;5034975;28;20473;-78
2024/01/30 06:50:17;;;;;;;12.65;8.57;;;;;;;-144.26;100.00;64884.69;5034246;28;20111;-79
2024/01/30 06:52:43;;;;;;;11.43;7.82;;;;;;;-144.26;100.00;64884.69;5034879;28;20074;-80
2024/01/30 06:55:08;;;;;;;11.60;8.18;;;;;;;-144.26;100.00;64884.69;5034725;28;20037;-80
2024/01/30 06:57:34;;;;;;;12.65;8.30;;;;;;;-144.26;100.00;64884.69;5034796;28;20388;-76
2024/01/30 06:59:59;;;;;;;12.15;8.55;;;;;;;-144.26;100.00;64884.69;5034686;28;20022;-76
2024/01/30 07:02:24;;;;;;;12.93;8.00;;;;;;;-144.26;100.00;64884.69;5034765;28;20116;-76
2024/01/30 07:04:50;;;;;;;13.77;8.80;;;;;;;-144.26;100.00;64884.69;5034453;28;20534;-76
2024/01/30 07:07:15;;;;;;;14.38;9.18;;;;;;;-144.26;100.00;64884.69;5034503;28;20037;-79
2024/01/30 07:09:41;;;;;;;10.60;8.05;;;;;;;-144.26;100.00;64884.69;5034465;28;20037;-78
2024/01/30 07:12:06;;;;;;;11.43;8.07;;;;;;;-144.26;100.00;64884.69;5034444;28;20033;-79
2024/01/30 07:14:32;;;;;;;11.70;8.63;;;;;;;-144.26;100.00;64884.69;5034363;28;20029;-77
2024/01/30 07:16:57;;;;;;;11.43;7.80;;;;;;;-144.26;100.00;64884.69;5034217;28;20036;-78
2024/01/30 07:19:22;;;;;;;11.07;8.13;;;;;;;-144.26;100.00;64884.69;5034170;28;20021;-79
2024/01/30 07:21:48;;;;;;;12.57;8.68;;;;;;;-144.26;100.00;64884.69;5034267;28;20029;-80
2024/01/30 07:24:13;;;;;;;11.85;9.15;;;;;;;-144.26;100.00;64884.69;5034443;28;20030;-80
2024/01/30 07:26:38;;;;;;;13.63;8.38;;;;;;;-144.26;100.00;64884.69;5034146;28;20497;-81
2024/01/30 07:29:04;;;;;;;10.35;8.48;;;;;;;-144.26;100.00;64884.69;5034216;28;20030;-78
2024/01/30 07:31:29;;;;;;;11.63;9.05;;;;;;;-144.26;100.00;64884.69;5034165;28;20128;-78
2024/01/30 07:33:54;;;;;;;11.95;8.65;;;;;;;-144.26;100.00;64884.69;5016199;28;20472;-78
2024/01/30 07:36:20;;;;;;;12.85;8.70;;;;;;;-144.26;100.00;64884.69;5033776;28;20082;-76
2024/01/30 07:38:46;;;;;;;11.23;8.65;;;;;;;-144.26;100.00;64884.69;5033936;28;20030;-78
2024/01/30 07:41:11;;;;;;;11.05;8.35;;;;;;;-144.26;100.00;64884.69;5016172;28;20040;-78
2024/01/30 07:43:38;;;;;;;11.25;8.30;;;;;;;-144.26;100.00;64884.69;5033916;28;20029;-78
2024/01/30 07:46:04;;;;;;;11.75;8.65;;;;;;;-144.26;100.00;64884.69;5033583;28;20017;-77
2024/01/30 07:48:29;;;;;;;11.35;8.73;;;;;;;-144.26;100.00;64884.69;5033803;28;20060;-77
2024/01/30 07:50:55;;;;;;;11.40;8.27;;;;;;;-144.26;100.00;64884.69;5033646;28;20033;-77
2024/01/30 07:53:20;;;;;;;13.60;8.75;;;;;;;-144.26;100.00;64884.69;5033644;28;20427;-78
2024/01/30 07:55:49;;;;;;;11.13;8.73;;;;;;;-144.26;100.00;64884.69;5033659;28;20522;-78
2024/01/30 07:58:15;;;;;;;13.55;9.10;;;;;;;-144.26;100.00;64884.69;5033742;28;20029;-77
2024/01/30 08:00:40;;;;;;;12.43;8.75;;;;;;;-144.26;100.00;64884.69;5032921;28;20392;-75
2024/01/30 08:03:05;;;;;;;12.32;9.00;;;;;;;-144.26;100.00;64884.69;5029783;28;20458;-75
2024/01/30 08:05:31;;;;;;;12.32;8.85;;;;;;;-144.26;100.00;64884.69;5033869;28;20083;-77
2024/01/30 08:07:56;;;;;;;10.90;8.60;;;;;;;-144.26;100.00;64884.69;5033834;28;20079;-78
2024/01/30 08:10:21;;;;;;;11.93;8.70;;;;;;;-144.26;100.00;64884.69;5033378;28;20037;-81
2024/01/30 08:12:46;;;;;;;12.18;8.25;;;;;;;-144.26;100.00;64884.69;5033332;28;20025;-76
2024/01/30 08:15:13;;;;;;;12.23;8.52;;;;;;;-144.26;100.00;64884.69;5033230;28;20105;-77
2024/01/30 08:17:38;;;;;;;11.55;8.25;;;;;;;-144.26;100.00;64884.69;5032984;28;20153;-77
2024/01/30 08:20:04;;;;;;;13.60;8.13;;;;;;;-144.26;100.00;64884.69;5033225;28;20501;-78
2024/01/30 08:22:30;;;;;;;13.10;8.25;;;;;;;-144.26;100.00;64884.69;5033126;28;20048;-76
2024/01/30 08:24:55;;;;;;;13.02;8.40;;;;;;;-144.26;100.00;64884.69;5033149;28;20473;-77
2024/01/30 08:27:20;;;;;;;10.98;8.50;;;;;;;-144.26;100.00;64884.69;5033128;28;20373;-78
2024/01/30 08:29:46;;;;;;;13.55;8.40;;;;;;;-144.26;100.00;64884.69;5033239;28;20053;-79
2024/01/30 08:32:11;;;;;;;11.80;8.40;;;;;;;-144.26;100.00;64884.69;5015147;28;20500;-79
2024/01/30 08:34:36;;;;;;;11.00;8.27;;;;;;;-144.26;100.00;64884.69;5032716;28;20026;-76
2024/01/30 08:37:02;;;;;;;12.43;8.07;;;;;;;-144.26;100.00;64884.69;5033001;28;20025;-74
2024/01/30 08:39:28;;;;;;;11.63;8.02;;;;;;;-144.26;100.00;64884.69;5032975;28;20145;-76
2024/01/30 08:41:53;;;;;;;12.57;8.13;;;;;;;-144.26;100.00;64884.69;5032749;28;20176;-76
2024/01/30 08:44:19;;;;;;;11.73;8.35;;;;;;;-144.26;100.00;64884.69;5032830;28;20037;-77
2024/01/30 08:46:45;;;;;;;10.75;7.78;;;;;;;-144.26;100.00;64884.69;5032562;28;20164;-78
2024/01/30 08:49:13;;;;;;;12.05;8.55;;;;;;;-144.26;100.00;64884.69;5032379;28;20025;-79
2024/01/30 08:51:38;;;;;;;15.50;8.55;;;;;;;-144.26;100.00;64884.69;5032860;28;20408;-76
2024/01/30 08:54:04;;;;;;;11.07;8.13;;;;;;;-144.26;100.00;64884.69;5032888;28;20028;-77
2024/01/30 08:56:29;;;;;;;12.30;8.45;;;;;;;-144.26;100.00;64884.69;5032758;28;20484;-77
2024/01/30 08:58:54;;;;;;;12.07;7.63;;;;;;;-144.26;100.00;64884.69;5032644;28;20025;-77
2024/01/30 09:01:20;;;;;;;10.77;8.27;;;;;;;-144.26;100.00;64884.69;5032493;28;20380;-77
2024/01/30 09:03:46;;;;;;;12.63;8.70;;;;;;;-144.26;100.00;64884.69;5032643;28;20024;-78
2024/01/30 09:06:12;;;;;;;12.90;8.02;;;;;;;-144.26;100.00;64884.69;5032362;28;20041;-78
2024/01/30 09:08:38;;;;;;;12.27;8.43;;;;;;;-144.26;100.00;64884.69;5032522;28;20029;-78
2024/01/30 09:11:11;;;;;;;12.15;8.73;;;;;;;-144.26;100.00;64884.69;5014714;28;20412;-78
2024/01/30 09:13:37;;;;;;;13.90;8.05;;;;;;;-144.26;100.00;64884.69;5031883;28;20056;-77
2024/01/30 09:16:03;;;;;;;15.25;8.73;;;;;;;-144.26;100.00;64884.69;5032401;28;20052;-78
2024/01/30 09:18:28;;;;;;;13.45;8.77;;;;;;;-144.26;100.00;64884.69;5032331;28;20400;-78
2024/01/30 09:20:53;;;;;;;11.48;8.20;;;;;;;-144.26;100.00;64884.69;5031899;28;20034;-77
2024/01/30 09:23:19;;;;;;;12.85;7.80;;;;;;;-144.26;100.00;64884.69;5032201;28;20031;-73
2024/01/30 09:25:45;;;;;;;17.50;8.80;;;;;;;-144.26;100.00;64884.69;5032341;28;20032;-78
2024/01/30 09:28:10;;;;;;;14.82;8.60;;;;;;;-144.26;100.00;64884.69;5032246;28;20072;-76
2024/01/30 09:30:36;;;;;;;12.88;8.00;;;;;;;-144.26;100.00;64884.69;5032226;28;20469;-77
2024/01/30 09:33:01;;;;;;;12.23;8.35;;;;;;;-144.26;100.00;64884.69;5032210;28;20075;-77
2024/01/30 09:35:26;;;;;;;11.63;8.48;;;;;;;-144.26;100.00;64884.69;5031771;28;20075;-77
2024/01/30 09:37:52;;;;;;;13.73;8.65;;;;;;;-144.26;100.00;64884.69;5032530;28;20053;-76
2024/01/30 09:40:19;;;;;;;11.82;8.07;;;;;;;-144.26;100.00;64884.69;5032021;28;20378;-76
2024/01/30 09:42:50;;;;;;;13.68;7.93;;;;;;;-144.26;100.00;64884.69;5032113;28;20493;-77
2024/01/30 09:45:17;;;;;;;11.20;7.50;;;;;;;-144.26;100.00;64884.69;5032257;28;20029;-76
2024/01/30 09:47:44;;;;;;;14.32;8.35;;;;;;;-144.26;100.00;64884.69;5032089;28;20026;-76
2024/01/30 09:50:12;;;;;;;15.82;8.20;;;;;;;-144.26;100.00;64884.69;5013759;28;20048;-77
2024/01/30 09:52:38;;;;;;;11.45;7.85;;;;;;;-144.26;100.00;64884.69;5032004;28;20018;-77
2024/01/30 09:55:04;;;;;;;13.60;8.02;;;;;;;-144.26;100.00;64884.69;5032029;28;20074;-78
2024/01/30 09:57:29;;;;;;;13.55;8.35;;;;;;;-144.26;100.00;64884.69;5014359;28;20026;-77
2024/01/30 09:59:55;;;;;;;11.95;7.97;;;;;;;-144.26;100.00;64884.69;5032373;28;20034;-76
2024/01/30 10:02:20;;;;;;;13.57;8.30;;;;;;;-144.26;100.00;64884.69;5015991;28;20088;-78
2024/01/30 10:04:50;;;;;;;12.38;8.02;;;;;;;-144.26;100.00;64884.69;5012855;28;20072;-77
2024/01/30 10:07:16;;;;;;;10.48;8.00;;;;;;;-144.26;100.00;64884.69;5012616;28;20026;-77
2024/01/30 10:09:42;;;;;;;11.77;8.20;;;;;;;-144.26;100.00;64884.69;5012822;28;20436;-78
2024/01/30 10:12:08;;;;;;;14.50;8.90;;;;;;;-144.26;100.00;64884.69;4994724;28;20069;-81
2024/01/30 10:14:37;;;;;;;13.57;8.25;;;;;;;-144.26;100.00;64884.69;5012722;28;20115;-76
2024/01/30 10:17:04;;;;;;;14.23;8.77;;;;;;;-144.26;100.00;64884.69;5012726;28;20069;-78
2024/01/30 10:19:29;;;;;;;12.93;8.40;;;;;;;-144.26;100.00;64884.69;4994563;28;20354;-80
2024/01/30 10:21:54;;;;;;;14.82;8.95;;;;;;;-144.26;100.00;64884.69;5012396;28;20120;-82
2024/01/30 10:24:24;;;;;;;14.40;7.50;;;;;;;-144.26;100.00;64884.69;5013259;28;20436;-76
2024/01/30 10:26:49;;;;;;;13.70;8.40;;;;;;;-144.26;100.00;64884.69;5016025;28;20026;-78
2024/01/30 10:29:14;;;;;;;11.45;8.52;;;;;;;-144.26;100.00;64884.69;5016084;28;20026;-76
2024/01/30 10:31:40;;;;;;;12.32;8.40;;;;;;;-144.26;100.00;64884.69;5016137;28;20022;-77
2024/01/30 10:34:06;;;;;;;12.43;8.18;;;;;;;-144.26;100.00;64884.69;5016071;28;20030;-78
2024/01/30 10:36:38;;;;;;;13.73;8.05;;;;;;;-144.26;100.00;64884.69;5015439;28;20091;-80
2024/01/30 10:39:07;;;;;;;12.90;9.18;;;;;;;-144.26;100.00;64884.69;5015705;28;20028;-78
2024/01/30 10:41:44;;;;;;;12.75;8.52;;;;;;;-144.26;100.00;64884.69;5015790;28;20070;-77
2024/01/30 10:44:11;;;;;;;13.40;8.30;;;;;;;-144.26;100.00;64884.69;5015631;28;20061;-76
2024/01/30 10:46:44;;;;;;;16.08;9.07;;;;;;;-144.26;100.00;64884.69;5015868;28;20127;-78
2024/01/30 10:49:10;;;;;;;13.27;8.00;;;;;;;-144.26;100.00;64884.69;5015531;28;20106;-84
2024/01/30 10:51:38;;;;;;;13.05;8.25;;;;;;;-144.26;100.00;64884.69;4997504;28;20045;-81
2024/01/30 10:54:05;;;;;;;14.27;8.45;;;;;;;-144.26;100.00;64884.69;5015671;28;20393;-81